gordon.dewis.ca - Random musings from Gordon

Subscribe

Well, that’s unnecessary

November 13, 2015 @ 22:23 By: gordon Category: Weather

I’m making a quick trip to Toronto tomorrow, so I thought I’d check the weather forecast. That’s when I noticed a decidedly unpleasant symbol on the current conditions for Ottawa.

A quick check of the current METAR for the airport showed:

METAR CYOW 140300Z 30011G16KT 8SM -SN BKN013 OVC020 02/00 A2964 RMK
SF6SC2 SLP041=

Fortunately, the TAF suggests it’s only going to do this for an hour or so:

TAF CYOW 140241Z 1403/1424 31012G22KT P6SM -RA SCT012 OVC025 TEMPO 1403/1404 21/2SM -SHSNRA OVC012
FM140400 31010G20KT P6SM BKN030 TEMPO 1404/1422 OVC020
FM142200 28015KT P6SM FEW030 SCT120
RMK NXT FCST BY 140600Z=

Leave a Reply

CAPTCHA
*